sensor_id;sensor_type;location;lat;lon;timestamp;temperature;humidity
37702;DHT22;23548;51.196;6.838;2024-01-25T00:00:22;9.10;99.90
37702;DHT22;23548;51.196;6.838;2024-01-25T00:02:47;9.20;99.90
37702;DHT22;23548;51.196;6.838;2024-01-25T00:05:13;9.20;99.90
37702;DHT22;23548;51.196;6.838;2024-01-25T00:07:48;9.20;99.90
37702;DHT22;23548;51.196;6.838;2024-01-25T00:10:17;9.30;99.90
37702;DHT22;23548;51.196;6.838;2024-01-25T00:12:43;9.30;99.90
37702;DHT22;23548;51.196;6.838;2024-01-25T00:15:09;9.20;99.90
37702;DHT22;23548;51.196;6.838;2024-01-25T00:17:36;9.20;99.90
37702;DHT22;23548;51.196;6.838;2024-01-25T00:20:02;9.20;99.90
37702;DHT22;23548;51.196;6.838;2024-01-25T00:22:28;9.20;99.90
37702;DHT22;23548;51.196;6.838;2024-01-25T00:24:54;9.20;99.90
37702;DHT22;23548;51.196;6.838;2024-01-25T00:27:19;9.20;99.90
37702;DHT22;23548;51.196;6.838;2024-01-25T00:29:45;9.20;99.90
37702;DHT22;23548;51.196;6.838;2024-01-25T00:32:11;9.10;99.90
37702;DHT22;23548;51.196;6.838;2024-01-25T00:34:37;9.00;99.90
37702;DHT22;23548;51.196;6.838;2024-01-25T00:37:02;9.10;99.90
37702;DHT22;23548;51.196;6.838;2024-01-25T00:39:28;9.10;99.90
37702;DHT22;23548;51.196;6.838;2024-01-25T00:42:01;9.00;99.90
37702;DHT22;23548;51.196;6.838;2024-01-25T00:44:28;8.90;99.90
37702;DHT22;23548;51.196;6.838;2024-01-25T00:46:55;9.00;99.90
37702;DHT22;23548;51.196;6.838;2024-01-25T00:49:21;8.90;99.90
37702;DHT22;23548;51.196;6.838;2024-01-25T00:51:47;8.90;99.90
37702;DHT22;23548;51.196;6.838;2024-01-25T00:54:16;8.80;99.90
37702;DHT22;23548;51.196;6.838;2024-01-25T00:56:42;8.80;99.90
37702;DHT22;23548;51.196;6.838;2024-01-25T00:59:08;8.80;99.90
37702;DHT22;23548;51.196;6.838;2024-01-25T01:01:34;8.60;99.90
37702;DHT22;23548;51.196;6.838;2024-01-25T01:04:00;8.60;99.90
37702;DHT22;23548;51.196;6.838;2024-01-25T01:06:26;8.60;99.90
37702;DHT22;23548;51.196;6.838;2024-01-25T01:08:52;8.60;99.90
37702;DHT22;23548;51.196;6.838;2024-01-25T01:11:18;8.50;99.90
37702;DHT22;23548;51.196;6.838;2024-01-25T01:13:44;8.50;99.90
37702;DHT22;23548;51.196;6.838;2024-01-25T01:16:10;8.40;99.90
37702;DHT22;23548;51.196;6.838;2024-01-25T01:18:36;8.40;99.90
37702;DHT22;23548;51.196;6.838;2024-01-25T01:21:04;8.40;99.90
37702;DHT22;23548;51.196;6.838;2024-01-25T01:23:29;8.40;99.90
37702;DHT22;23548;51.196;6.838;2024-01-25T01:25:55;8.40;99.90
37702;DHT22;23548;51.196;6.838;2024-01-25T01:28:21;8.40;99.90
37702;DHT22;23548;51.196;6.838;2024-01-25T01:30:47;8.40;99.90
37702;DHT22;23548;51.196;6.838;2024-01-25T01:33:12;8.30;99.90
37702;DHT22;23548;51.196;6.838;2024-01-25T01:35:38;8.30;99.90
37702;DHT22;23548;51.196;6.838;2024-01-25T01:38:04;8.30;99.90
37702;DHT22;23548;51.196;6.838;2024-01-25T01:40:29;8.20;99.90
37702;DHT22;23548;51.196;6.838;2024-01-25T01:42:59;8.10;99.90
37702;DHT22;23548;51.196;6.838;2024-01-25T01:45:26;8.10;99.90
37702;DHT22;23548;51.196;6.838;2024-01-25T01:47:53;8.00;99.90
37702;DHT22;23548;51.196;6.838;2024-01-25T01:50:18;7.90;99.90
37702;DHT22;23548;51.196;6.838;2024-01-25T01:52:46;7.90;99.90
37702;DHT22;23548;51.196;6.838;2024-01-25T01:55:12;7.90;99.90
37702;DHT22;23548;51.196;6.838;2024-01-25T01:57:38;7.80;99.90
37702;DHT22;23548;51.196;6.838;2024-01-25T02:00:06;7.90;99.90
37702;DHT22;23548;51.196;6.838;2024-01-25T02:05:46;7.90;99.90
37702;DHT22;23548;51.196;6.838;2024-01-25T02:08:13;7.90;99.90
37702;DHT22;23548;51.196;6.838;2024-01-25T02:10:38;7.90;99.90
37702;DHT22;23548;51.196;6.838;2024-01-25T02:13:04;7.80;99.90
37702;DHT22;23548;51.196;6.838;2024-01-25T02:15:30;7.80;99.90
37702;DHT22;23548;51.196;6.838;2024-01-25T02:17:56;7.80;99.90
37702;DHT22;23548;51.196;6.838;2024-01-25T02:20:21;7.80;99.90
37702;DHT22;23548;51.196;6.838;2024-01-25T02:22:47;7.80;99.90
37702;DHT22;23548;51.196;6.838;2024-01-25T02:25:13;7.80;99.90
37702;DHT22;23548;51.196;6.838;2024-01-25T02:27:38;7.80;99.90
37702;DHT22;23548;51.196;6.838;2024-01-25T02:30:08;7.90;99.90
37702;DHT22;23548;51.196;6.838;2024-01-25T02:32:34;7.90;99.90
37702;DHT22;23548;51.196;6.838;2024-01-25T02:35:00;7.80;99.90
37702;DHT22;23548;51.196;6.838;2024-01-25T02:37:26;7.80;99.90
37702;DHT22;23548;51.196;6.838;2024-01-25T02:39:52;7.90;99.90
37702;DHT22;23548;51.196;6.838;2024-01-25T02:42:18;8.00;99.90
37702;DHT22;23548;51.196;6.838;2024-01-25T02:44:44;8.00;99.90
37702;DHT22;23548;51.196;6.838;2024-01-25T02:47:10;8.00;99.90
37702;DHT22;23548;51.196;6.838;2024-01-25T02:49:36;8.20;99.90
37702;DHT22;23548;51.196;6.838;2024-01-25T02:52:01;8.20;99.90
37702;DHT22;23548;51.196;6.838;2024-01-25T02:54:27;8.20;99.90
37702;DHT22;23548;51.196;6.838;2024-01-25T02:56:53;8.20;99.90
37702;DHT22;23548;51.196;6.838;2024-01-25T02:59:19;8.30;99.90
37702;DHT22;23548;51.196;6.838;2024-01-25T03:01:46;8.20;99.90
37702;DHT22;23548;51.196;6.838;2024-01-25T03:04:11;8.10;99.90
37702;DHT22;23548;51.196;6.838;2024-01-25T03:06:37;8.10;99.90
37702;DHT22;23548;51.196;6.838;2024-01-25T03:09:03;8.10;99.90
37702;DHT22;23548;51.196;6.838;2024-01-25T03:11:31;8.00;99.90
37702;DHT22;23548;51.196;6.838;2024-01-25T03:13:57;8.00;99.90
37702;DHT22;23548;51.196;6.838;2024-01-25T03:16:23;7.90;99.90
37702;DHT22;23548;51.196;6.838;2024-01-25T03:18:49;7.90;99.90
37702;DHT22;23548;51.196;6.838;2024-01-25T03:21:14;7.80;99.90
37702;DHT22;23548;51.196;6.838;2024-01-25T03:23:40;7.70;99.90
37702;DHT22;23548;51.196;6.838;2024-01-25T03:26:06;7.70;99.90
37702;DHT22;23548;51.196;6.838;2024-01-25T03:28:34;7.60;99.90
37702;DHT22;23548;51.196;6.838;2024-01-25T03:31:00;7.60;99.90
37702;DHT22;23548;51.196;6.838;2024-01-25T03:33:26;7.60;99.90
37702;DHT22;23548;51.196;6.838;2024-01-25T03:35:53;7.60;99.90
37702;DHT22;23548;51.196;6.838;2024-01-25T03:38:19;7.60;99.90
37702;DHT22;23548;51.196;6.838;2024-01-25T03:40:45;7.50;99.90
37702;DHT22;23548;51.196;6.838;2024-01-25T03:43:10;7.40;99.90
37702;DHT22;23548;51.196;6.838;2024-01-25T03:45:36;7.50;99.90
37702;DHT22;23548;51.196;6.838;2024-01-25T03:48:02;7.50;99.90
37702;DHT22;23548;51.196;6.838;2024-01-25T03:50:28;7.40;99.90
37702;DHT22;23548;51.196;6.838;2024-01-25T03:52:53;7.40;99.90
37702;DHT22;23548;51.196;6.838;2024-01-25T03:55:19;7.30;99.90
37702;DHT22;23548;51.196;6.838;2024-01-25T03:57:45;7.30;99.90
37702;DHT22;23548;51.196;6.838;2024-01-25T04:00:11;7.20;99.90
37702;DHT22;23548;51.196;6.838;2024-01-25T04:02:38;7.10;99.90
37702;DHT22;23548;51.196;6.838;2024-01-25T04:05:04;7.10;99.90
37702;DHT22;23548;51.196;6.838;2024-01-25T04:07:30;7.10;99.90
37702;DHT22;23548;51.196;6.838;2024-01-25T04:09:56;7.10;99.90
37702;DHT22;23548;51.196;6.838;2024-01-25T04:12:21;7.10;99.90
37702;DHT22;23548;51.196;6.838;2024-01-25T04:14:47;7.10;99.90
37702;DHT22;23548;51.196;6.838;2024-01-25T04:17:13;7.00;99.90
37702;DHT22;23548;51.196;6.838;2024-01-25T04:19:38;7.00;99.90
37702;DHT22;23548;51.196;6.838;2024-01-25T04:22:04;7.00;99.90
37702;DHT22;23548;51.196;6.838;2024-01-25T04:24:30;7.00;99.90
37702;DHT22;23548;51.196;6.838;2024-01-25T04:26:56;6.90;99.90
37702;DHT22;23548;51.196;6.838;2024-01-25T04:29:22;7.00;99.90
37702;DHT22;23548;51.196;6.838;2024-01-25T04:31:48;7.00;99.90
37702;DHT22;23548;51.196;6.838;2024-01-25T04:34:16;6.90;99.90
37702;DHT22;23548;51.196;6.838;2024-01-25T04:36:42;6.80;99.90
37702;DHT22;23548;51.196;6.838;2024-01-25T04:39:08;6.80;99.90
37702;DHT22;23548;51.196;6.838;2024-01-25T04:41:34;6.80;99.90
37702;DHT22;23548;51.196;6.838;2024-01-25T04:43:59;6.80;99.90
37702;DHT22;23548;51.196;6.838;2024-01-25T04:46:25;6.70;99.90
37702;DHT22;23548;51.196;6.838;2024-01-25T04:48:52;6.60;99.90
37702;DHT22;23548;51.196;6.838;2024-01-25T04:51:19;6.60;99.90
37702;DHT22;23548;51.196;6.838;2024-01-25T04:53:48;6.50;99.90
37702;DHT22;23548;51.196;6.838;2024-01-25T04:56:14;6.50;99.90
37702;DHT22;23548;51.196;6.838;2024-01-25T04:58:39;6.40;99.90
37702;DHT22;23548;51.196;6.838;2024-01-25T05:01:05;6.40;99.90
37702;DHT22;23548;51.196;6.838;2024-01-25T05:03:32;6.40;99.90
37702;DHT22;23548;51.196;6.838;2024-01-25T05:05:58;6.40;99.90
37702;DHT22;23548;51.196;6.838;2024-01-25T05:08:24;6.30;99.90
37702;DHT22;23548;51.196;6.838;2024-01-25T05:10:50;6.30;99.90
37702;DHT22;23548;51.196;6.838;2024-01-25T05:13:15;6.30;99.90
37702;DHT22;23548;51.196;6.838;2024-01-25T05:15:41;6.30;99.90
37702;DHT22;23548;51.196;6.838;2024-01-25T05:18:07;6.20;99.90
37702;DHT22;23548;51.196;6.838;2024-01-25T05:20:33;6.20;99.90
37702;DHT22;23548;51.196;6.838;2024-01-25T05:23:00;6.20;99.90
37702;DHT22;23548;51.196;6.838;2024-01-25T05:25:26;6.20;99.90
37702;DHT22;23548;51.196;6.838;2024-01-25T05:27:53;6.10;99.90
37702;DHT22;23548;51.196;6.838;2024-01-25T05:30:19;6.10;99.90
37702;DHT22;23548;51.196;6.838;2024-01-25T05:32:45;6.10;99.90
37702;DHT22;23548;51.196;6.838;2024-01-25T05:35:11;6.10;99.90
37702;DHT22;23548;51.196;6.838;2024-01-25T05:37:37;6.10;99.90
37702;DHT22;23548;51.196;6.838;2024-01-25T05:40:03;6.10;99.90
37702;DHT22;23548;51.196;6.838;2024-01-25T05:42:29;6.00;99.90
37702;DHT22;23548;51.196;6.838;2024-01-25T05:44:54;6.00;99.90
37702;DHT22;23548;51.196;6.838;2024-01-25T05:47:20;6.10;99.90
37702;DHT22;23548;51.196;6.838;2024-01-25T05:49:46;6.00;99.90
37702;DHT22;23548;51.196;6.838;2024-01-25T05:52:12;6.00;99.90
37702;DHT22;23548;51.196;6.838;2024-01-25T05:54:38;6.00;99.90
37702;DHT22;23548;51.196;6.838;2024-01-25T05:57:04;6.00;99.90
37702;DHT22;23548;51.196;6.838;2024-01-25T05:59:30;6.00;99.90
37702;DHT22;23548;51.196;6.838;2024-01-25T06:01:55;5.90;99.90
37702;DHT22;23548;51.196;6.838;2024-01-25T06:04:21;5.90;99.90
37702;DHT22;23548;51.196;6.838;2024-01-25T06:06:47;5.90;99.90
37702;DHT22;23548;51.196;6.838;2024-01-25T06:09:12;5.80;99.90
37702;DHT22;23548;51.196;6.838;2024-01-25T06:11:40;5.80;99.90
37702;DHT22;23548;51.196;6.838;2024-01-25T06:14:07;5.80;99.90
37702;DHT22;23548;51.196;6.838;2024-01-25T06:16:33;5.70;99.90
37702;DHT22;23548;51.196;6.838;2024-01-25T06:18:58;5.70;99.90
37702;DHT22;23548;51.196;6.838;2024-01-25T06:21:26;5.80;99.90
37702;DHT22;23548;51.196;6.838;2024-01-25T06:23:51;5.70;99.90
37702;DHT22;23548;51.196;6.838;2024-01-25T06:26:17;5.60;99.90
37702;DHT22;23548;51.196;6.838;2024-01-25T06:28:43;5.50;99.90
37702;DHT22;23548;51.196;6.838;2024-01-25T06:31:08;5.60;99.90
37702;DHT22;23548;51.196;6.838;2024-01-25T06:33:34;5.60;99.90
37702;DHT22;23548;51.196;6.838;2024-01-25T06:36:00;5.60;99.90
37702;DHT22;23548;51.196;6.838;2024-01-25T06:38:25;5.60;99.90
37702;DHT22;23548;51.196;6.838;2024-01-25T06:40:51;5.50;99.90
37702;DHT22;23548;51.196;6.838;2024-01-25T06:43:17;5.40;99.90
37702;DHT22;23548;51.196;6.838;2024-01-25T06:45:43;5.40;99.90
37702;DHT22;23548;51.196;6.838;2024-01-25T06:48:09;5.40;99.90
37702;DHT22;23548;51.196;6.838;2024-01-25T06:50:35;5.30;99.90
37702;DHT22;23548;51.196;6.838;2024-01-25T06:53:00;5.30;99.90
37702;DHT22;23548;51.196;6.838;2024-01-25T06:55:26;5.30;99.90
37702;DHT22;23548;51.196;6.838;2024-01-25T06:57:52;5.30;99.90
37702;DHT22;23548;51.196;6.838;2024-01-25T07:00:18;5.30;99.90
37702;DHT22;23548;51.196;6.838;2024-01-25T07:02:46;5.20;99.90
37702;DHT22;23548;51.196;6.838;2024-01-25T07:05:12;5.20;99.90
37702;DHT22;23548;51.196;6.838;2024-01-25T07:07:38;5.20;99.90
37702;DHT22;23548;51.196;6.838;2024-01-25T07:10:05;5.10;99.90
37702;DHT22;23548;51.196;6.838;2024-01-25T07:12:31;5.10;99.90
37702;DHT22;23548;51.196;6.838;2024-01-25T07:14:58;5.20;99.90
37702;DHT22;23548;51.196;6.838;2024-01-25T07:17:24;5.30;99.90
37702;DHT22;23548;51.196;6.838;2024-01-25T07:19:49;5.20;99.90
37702;DHT22;23548;51.196;6.838;2024-01-25T07:22:15;5.10;99.90
37702;DHT22;23548;51.196;6.838;2024-01-25T07:24:42;5.00;99.90
37702;DHT22;23548;51.196;6.838;2024-01-25T07:27:08;4.90;99.90
37702;DHT22;23548;51.196;6.838;2024-01-25T07:29:36;5.10;99.90
37702;DHT22;23548;51.196;6.838;2024-01-25T07:32:02;5.00;99.90
37702;DHT22;23548;51.196;6.838;2024-01-25T07:34:28;5.00;99.90
37702;DHT22;23548;51.196;6.838;2024-01-25T07:36:54;5.30;99.90
37702;DHT22;23548;51.196;6.838;2024-01-25T07:39:19;5.40;99.90
37702;DHT22;23548;51.196;6.838;2024-01-25T07:41:45;5.20;99.90
37702;DHT22;23548;51.196;6.838;2024-01-25T07:44:12;5.10;99.90
37702;DHT22;23548;51.196;6.838;2024-01-25T07:46:38;5.30;99.90
37702;DHT22;23548;51.196;6.838;2024-01-25T07:49:04;6.00;99.90
37702;DHT22;23548;51.196;6.838;2024-01-25T07:51:30;5.70;99.90
37702;DHT22;23548;51.196;6.838;2024-01-25T07:53:56;5.90;99.90
37702;DHT22;23548;51.196;6.838;2024-01-25T07:56:22;5.60;99.90
37702;DHT22;23548;51.196;6.838;2024-01-25T07:58:48;5.50;99.90
37702;DHT22;23548;51.196;6.838;2024-01-25T08:01:18;5.70;99.90
37702;DHT22;23548;51.196;6.838;2024-01-25T08:03:44;5.70;99.90
37702;DHT22;23548;51.196;6.838;2024-01-25T08:06:10;5.70;99.90
37702;DHT22;23548;51.196;6.838;2024-01-25T08:08:37;5.70;99.90
37702;DHT22;23548;51.196;6.838;2024-01-25T08:11:02;5.80;99.90
37702;DHT22;23548;51.196;6.838;2024-01-25T08:13:29;5.80;99.90
37702;DHT22;23548;51.196;6.838;2024-01-25T08:15:56;6.00;99.90
37702;DHT22;23548;51.196;6.838;2024-01-25T08:18:21;6.10;99.90
37702;DHT22;23548;51.196;6.838;2024-01-25T08:20:49;6.10;99.90
37702;DHT22;23548;51.196;6.838;2024-01-25T08:23:16;6.10;99.90
37702;DHT22;23548;51.196;6.838;2024-01-25T08:25:42;6.00;99.90
37702;DHT22;23548;51.196;6.838;2024-01-25T08:28:07;5.90;99.90
37702;DHT22;23548;51.196;6.838;2024-01-25T08:30:33;6.00;99.90
37702;DHT22;23548;51.196;6.838;2024-01-25T08:32:59;5.90;99.90
37702;DHT22;23548;51.196;6.838;2024-01-25T08:35:25;5.90;99.90
37702;DHT22;23548;51.196;6.838;2024-01-25T08:37:51;5.90;99.90
37702;DHT22;23548;51.196;6.838;2024-01-25T08:40:18;5.90;99.90
37702;DHT22;23548;51.196;6.838;2024-01-25T08:42:43;5.90;99.90
37702;DHT22;23548;51.196;6.838;2024-01-25T08:45:09;6.00;99.90
37702;DHT22;23548;51.196;6.838;2024-01-25T08:47:36;6.20;99.90
37702;DHT22;23548;51.196;6.838;2024-01-25T08:50:02;6.40;99.90
37702;DHT22;23548;51.196;6.838;2024-01-25T08:52:29;6.60;99.90
37702;DHT22;23548;51.196;6.838;2024-01-25T08:54:54;6.60;99.90
37702;DHT22;23548;51.196;6.838;2024-01-25T08:57:20;6.80;99.90
37702;DHT22;23548;51.196;6.838;2024-01-25T08:59:46;6.80;99.90
37702;DHT22;23548;51.196;6.838;2024-01-25T09:02:12;6.80;99.90
37702;DHT22;23548;51.196;6.838;2024-01-25T09:04:37;6.90;99.90
37702;DHT22;23548;51.196;6.838;2024-01-25T09:07:03;7.00;99.90
37702;DHT22;23548;51.196;6.838;2024-01-25T09:09:30;7.10;99.90
37702;DHT22;23548;51.196;6.838;2024-01-25T09:11:55;7.30;99.90
37702;DHT22;23548;51.196;6.838;2024-01-25T09:14:21;7.20;99.90
37702;DHT22;23548;51.196;6.838;2024-01-25T09:16:47;7.20;99.90
37702;DHT22;23548;51.196;6.838;2024-01-25T09:19:13;7.20;99.90
37702;DHT22;23548;51.196;6.838;2024-01-25T09:21:39;7.30;99.90
37702;DHT22;23548;51.196;6.838;2024-01-25T09:24:05;7.30;99.90
37702;DHT22;23548;51.196;6.838;2024-01-25T09:26:32;7.30;99.90
37702;DHT22;23548;51.196;6.838;2024-01-25T09:28:57;7.30;99.90
37702;DHT22;23548;51.196;6.838;2024-01-25T09:31:23;7.30;99.90
37702;DHT22;23548;51.196;6.838;2024-01-25T09:33:51;7.30;99.90
37702;DHT22;23548;51.196;6.838;2024-01-25T09:36:17;7.50;99.90
37702;DHT22;23548;51.196;6.838;2024-01-25T09:38:43;7.40;99.90
37702;DHT22;23548;51.196;6.838;2024-01-25T09:41:09;7.50;99.90
37702;DHT22;23548;51.196;6.838;2024-01-25T09:43:35;7.50;99.90
37702;DHT22;23548;51.196;6.838;2024-01-25T09:46:02;7.60;99.90
37702;DHT22;23548;51.196;6.838;2024-01-25T09:48:28;7.60;99.90
37702;DHT22;23548;51.196;6.838;2024-01-25T09:50:55;7.50;99.90
37702;DHT22;23548;51.196;6.838;2024-01-25T09:53:22;7.50;99.90
37702;DHT22;23548;51.196;6.838;2024-01-25T09:56:12;7.60;99.90
37702;DHT22;23548;51.196;6.838;2024-01-25T09:58:40;7.60;99.90
37702;DHT22;23548;51.196;6.838;2024-01-25T10:01:11;7.60;99.90
37702;DHT22;23548;51.196;6.838;2024-01-25T10:03:44;7.70;99.90
37702;DHT22;23548;51.196;6.838;2024-01-25T10:06:14;7.80;99.90
37702;DHT22;23548;51.196;6.838;2024-01-25T10:08:40;7.80;99.90
37702;DHT22;23548;51.196;6.838;2024-01-25T10:11:06;8.10;99.90
37702;DHT22;23548;51.196;6.838;2024-01-25T10:13:44;8.20;99.90
37702;DHT22;23548;51.196;6.838;2024-01-25T10:16:14;8.30;99.90
37702;DHT22;23548;51.196;6.838;2024-01-25T10:18:41;8.40;99.90
37702;DHT22;23548;51.196;6.838;2024-01-25T10:21:09;8.40;99.90
37702;DHT22;23548;51.196;6.838;2024-01-25T10:23:35;8.60;99.90
37702;DHT22;23548;51.196;6.838;2024-01-25T10:26:01;8.80;99.90
37702;DHT22;23548;51.196;6.838;2024-01-25T10:28:27;8.70;99.90
37702;DHT22;23548;51.196;6.838;2024-01-25T10:31:01;8.60;99.90
37702;DHT22;23548;51.196;6.838;2024-01-25T10:33:27;8.70;99.90
37702;DHT22;23548;51.196;6.838;2024-01-25T10:35:57;8.80;99.90
37702;DHT22;23548;51.196;6.838;2024-01-25T10:38:34;8.80;99.90
37702;DHT22;23548;51.196;6.838;2024-01-25T10:41:02;8.80;99.90
37702;DHT22;23548;51.196;6.838;2024-01-25T10:43:31;8.90;99.90
37702;DHT22;23548;51.196;6.838;2024-01-25T10:46:00;8.80;99.90
37702;DHT22;23548;51.196;6.838;2024-01-25T10:48:27;8.90;99.90
37702;DHT22;23548;51.196;6.838;2024-01-25T10:50:56;9.00;99.90
37702;DHT22;23548;51.196;6.838;2024-01-25T10:53:27;9.00;99.90
37702;DHT22;23548;51.196;6.838;2024-01-25T10:55:54;8.80;99.90
37702;DHT22;23548;51.196;6.838;2024-01-25T10:58:20;8.80;99.90
37702;DHT22;23548;51.196;6.838;2024-01-25T11:00:55;8.90;99.90
37702;DHT22;23548;51.196;6.838;2024-01-25T11:03:26;9.00;99.90
37702;DHT22;23548;51.196;6.838;2024-01-25T11:05:54;9.10;99.90
37702;DHT22;23548;51.196;6.838;2024-01-25T11:08:20;9.20;99.90
37702;DHT22;23548;51.196;6.838;2024-01-25T11:10:53;9.20;99.90
37702;DHT22;23548;51.196;6.838;2024-01-25T11:13:28;9.20;99.90
37702;DHT22;23548;51.196;6.838;2024-01-25T11:15:55;9.40;99.90
37702;DHT22;23548;51.196;6.838;2024-01-25T11:18:25;9.50;99.90
37702;DHT22;23548;51.196;6.838;2024-01-25T11:20:51;9.60;99.90
37702;DHT22;23548;51.196;6.838;2024-01-25T11:23:17;9.30;99.90
37702;DHT22;23548;51.196;6.838;2024-01-25T11:25:47;9.30;99.90
37702;DHT22;23548;51.196;6.838;2024-01-25T11:28:14;9.30;99.90
37702;DHT22;23548;51.196;6.838;2024-01-25T11:30:43;9.40;99.90
37702;DHT22;23548;51.196;6.838;2024-01-25T11:33:09;9.30;99.90
37702;DHT22;23548;51.196;6.838;2024-01-25T11:35:35;9.40;99.90
37702;DHT22;23548;51.196;6.838;2024-01-25T11:38:01;9.40;99.90
37702;DHT22;23548;51.196;6.838;2024-01-25T11:40:27;9.30;99.90
37702;DHT22;23548;51.196;6.838;2024-01-25T11:42:56;9.30;99.90
37702;DHT22;23548;51.196;6.838;2024-01-25T11:45:22;9.50;99.90
37702;DHT22;23548;51.196;6.838;2024-01-25T11:47:48;9.50;99.90
37702;DHT22;23548;51.196;6.838;2024-01-25T11:50:15;9.70;99.90
37702;DHT22;23548;51.196;6.838;2024-01-25T11:52:40;9.60;99.90
37702;DHT22;23548;51.196;6.838;2024-01-25T11:55:08;9.90;99.90
37702;DHT22;23548;51.196;6.838;2024-01-25T11:57:39;9.50;99.90
37702;DHT22;23548;51.196;6.838;2024-01-25T12:00:10;9.80;99.90
37702;DHT22;23548;51.196;6.838;2024-01-25T12:02:38;9.70;99.90
37702;DHT22;23548;51.196;6.838;2024-01-25T12:05:05;9.80;99.90
37702;DHT22;23548;51.196;6.838;2024-01-25T12:07:31;9.90;99.90
37702;DHT22;23548;51.196;6.838;2024-01-25T12:12:27;9.80;99.90
37702;DHT22;23548;51.196;6.838;2024-01-25T12:15:00;9.70;99.90
37702;DHT22;23548;51.196;6.838;2024-01-25T12:17:33;9.80;99.90
37702;DHT22;23548;51.196;6.838;2024-01-25T12:20:00;9.80;99.90
37702;DHT22;23548;51.196;6.838;2024-01-25T12:22:29;9.70;99.90
37702;DHT22;23548;51.196;6.838;2024-01-25T12:24:56;9.60;99.90
37702;DHT22;23548;51.196;6.838;2024-01-25T12:27:23;9.60;99.90
37702;DHT22;23548;51.196;6.838;2024-01-25T12:29:54;9.80;99.90
37702;DHT22;23548;51.196;6.838;2024-01-25T12:32:23;9.90;99.90
37702;DHT22;23548;51.196;6.838;2024-01-25T12:37:20;10.50;99.90
37702;DHT22;23548;51.196;6.838;2024-01-25T12:39:46;10.40;99.90
37702;DHT22;23548;51.196;6.838;2024-01-25T12:42:12;10.00;99.90
37702;DHT22;23548;51.196;6.838;2024-01-25T12:44:39;9.70;99.90
37702;DHT22;23548;51.196;6.838;2024-01-25T12:47:04;9.80;99.90
37702;DHT22;23548;51.196;6.838;2024-01-25T12:49:32;9.90;99.90
37702;DHT22;23548;51.196;6.838;2024-01-25T12:51:59;10.10;99.90
37702;DHT22;23548;51.196;6.838;2024-01-25T12:54:25;10.30;99.90
37702;DHT22;23548;51.196;6.838;2024-01-25T12:56:51;10.40;99.90
37702;DHT22;23548;51.196;6.838;2024-01-25T12:59:17;10.50;99.90
37702;DHT22;23548;51.196;6.838;2024-01-25T13:01:42;10.40;99.90
37702;DHT22;23548;51.196;6.838;2024-01-25T13:04:08;10.20;99.90
37702;DHT22;23548;51.196;6.838;2024-01-25T13:06:34;9.90;99.90
37702;DHT22;23548;51.196;6.838;2024-01-25T13:09:00;9.80;99.90
37702;DHT22;23548;51.196;6.838;2024-01-25T13:11:25;9.80;99.90
37702;DHT22;23548;51.196;6.838;2024-01-25T13:13:51;9.70;99.90
37702;DHT22;23548;51.196;6.838;2024-01-25T13:16:17;9.70;99.90
37702;DHT22;23548;51.196;6.838;2024-01-25T13:18:43;9.80;99.90
37702;DHT22;23548;51.196;6.838;2024-01-25T13:21:09;9.70;99.90
37702;DHT22;23548;51.196;6.838;2024-01-25T13:23:34;9.80;99.90
37702;DHT22;23548;51.196;6.838;2024-01-25T13:26:01;9.90;99.90
37702;DHT22;23548;51.196;6.838;2024-01-25T13:28:27;10.00;99.90
37702;DHT22;23548;51.196;6.838;2024-01-25T13:30:56;10.20;99.90
37702;DHT22;23548;51.196;6.838;2024-01-25T13:33:22;10.30;99.90
37702;DHT22;23548;51.196;6.838;2024-01-25T13:35:48;10.60;99.90
37702;DHT22;23548;51.196;6.838;2024-01-25T13:38:13;10.70;99.90
37702;DHT22;23548;51.196;6.838;2024-01-25T13:40:42;10.80;99.90
37702;DHT22;23548;51.196;6.838;2024-01-25T13:43:07;10.80;99.90
37702;DHT22;23548;51.196;6.838;2024-01-25T13:45:33;10.90;99.90
37702;DHT22;23548;51.196;6.838;2024-01-25T13:47:59;11.00;99.90
37702;DHT22;23548;51.196;6.838;2024-01-25T13:50:24;10.60;99.90
37702;DHT22;23548;51.196;6.838;2024-01-25T13:52:51;10.50;99.90
37702;DHT22;23548;51.196;6.838;2024-01-25T13:55:17;10.60;99.90
37702;DHT22;23548;51.196;6.838;2024-01-25T13:57:42;10.80;99.90
37702;DHT22;23548;51.196;6.838;2024-01-25T14:00:08;10.80;99.90
37702;DHT22;23548;51.196;6.838;2024-01-25T14:02:36;10.70;99.90
37702;DHT22;23548;51.196;6.838;2024-01-25T14:05:01;10.80;99.90
37702;DHT22;23548;51.196;6.838;2024-01-25T14:07:27;10.70;99.90
37702;DHT22;23548;51.196;6.838;2024-01-25T14:09:53;10.50;99.90
37702;DHT22;23548;51.196;6.838;2024-01-25T14:12:19;10.60;99.90
37702;DHT22;23548;51.196;6.838;2024-01-25T14:14:45;10.50;99.90
37702;DHT22;23548;51.196;6.838;2024-01-25T14:17:10;10.50;99.90
37702;DHT22;23548;51.196;6.838;2024-01-25T14:19:36;10.30;99.90
37702;DHT22;23548;51.196;6.838;2024-01-25T14:22:02;10.20;99.90
37702;DHT22;23548;51.196;6.838;2024-01-25T14:24:28;10.30;99.90
37702;DHT22;23548;51.196;6.838;2024-01-25T14:26:54;10.10;99.90
37702;DHT22;23548;51.196;6.838;2024-01-25T14:29:19;10.20;99.90
37702;DHT22;23548;51.196;6.838;2024-01-25T14:31:45;10.10;99.90
37702;DHT22;23548;51.196;6.838;2024-01-25T14:34:11;10.10;99.90
37702;DHT22;23548;51.196;6.838;2024-01-25T14:36:37;10.10;99.90
37702;DHT22;23548;51.196;6.838;2024-01-25T14:39:02;10.20;99.90
37702;DHT22;23548;51.196;6.838;2024-01-25T14:41:29;10.20;99.90
37702;DHT22;23548;51.196;6.838;2024-01-25T14:43:55;10.30;99.90
37702;DHT22;23548;51.196;6.838;2024-01-25T14:46:21;10.30;99.90
37702;DHT22;23548;51.196;6.838;2024-01-25T14:48:46;10.30;99.90
37702;DHT22;23548;51.196;6.838;2024-01-25T14:51:12;10.30;99.90
37702;DHT22;23548;51.196;6.838;2024-01-25T14:53:38;10.20;99.90
37702;DHT22;23548;51.196;6.838;2024-01-25T14:56:04;10.20;99.90
37702;DHT22;23548;51.196;6.838;2024-01-25T14:58:30;10.20;99.90
37702;DHT22;23548;51.196;6.838;2024-01-25T15:00:56;10.20;99.90
37702;DHT22;23548;51.196;6.838;2024-01-25T15:03:22;10.20;99.90
37702;DHT22;23548;51.196;6.838;2024-01-25T15:05:48;10.20;99.90
37702;DHT22;23548;51.196;6.838;2024-01-25T15:08:14;10.20;99.90
37702;DHT22;23548;51.196;6.838;2024-01-25T15:10:40;10.20;99.90
37702;DHT22;23548;51.196;6.838;2024-01-25T15:13:05;10.20;99.90
37702;DHT22;23548;51.196;6.838;2024-01-25T15:15:31;10.30;99.90
37702;DHT22;23548;51.196;6.838;2024-01-25T15:17:57;10.30;99.90
37702;DHT22;23548;51.196;6.838;2024-01-25T15:20:24;10.20;99.90
37702;DHT22;23548;51.196;6.838;2024-01-25T15:22:50;10.20;99.90
37702;DHT22;23548;51.196;6.838;2024-01-25T15:25:16;10.20;99.90
37702;DHT22;23548;51.196;6.838;2024-01-25T15:27:42;10.10;99.90
37702;DHT22;23548;51.196;6.838;2024-01-25T15:30:09;10.10;99.90
37702;DHT22;23548;51.196;6.838;2024-01-25T15:32:36;10.20;99.90
37702;DHT22;23548;51.196;6.838;2024-01-25T15:35:02;10.10;99.90
37702;DHT22;23548;51.196;6.838;2024-01-25T15:37:28;10.10;99.90
37702;DHT22;23548;51.196;6.838;2024-01-25T15:39:54;10.10;99.90
37702;DHT22;23548;51.196;6.838;2024-01-25T15:42:20;10.10;99.90
37702;DHT22;23548;51.196;6.838;2024-01-25T15:44:46;10.10;99.90